createdAt,value
2019-04-16T00:00:21.176Z,3.39
2019-04-16T00:02:53.474Z,3.12
2019-04-16T00:05:28.472Z,2.97
2019-04-16T00:08:00.413Z,2.85
2019-04-16T00:11:03.718Z,2.64
2019-04-16T00:13:36.183Z,2.41
2019-04-16T00:16:04.846Z,2.29
2019-04-16T00:18:33.537Z,2.35
2019-04-16T00:21:30.532Z,2.38
2019-04-16T00:24:10.661Z,2.41
2019-04-16T00:26:39.402Z,2.35
2019-04-16T00:29:08.149Z,2.26
2019-04-16T00:31:37.754Z,2.31
2019-04-16T00:34:06.529Z,2.38
2019-04-16T00:36:35.231Z,2.40
2019-04-16T00:39:05.670Z,2.44
2019-04-16T00:41:34.369Z,2.53
2019-04-16T00:44:03.060Z,2.55
2019-04-16T00:46:31.717Z,2.50
2019-04-16T00:49:00.377Z,2.45
2019-04-16T00:51:29.213Z,2.36
2019-04-16T00:53:57.876Z,2.35
2019-04-16T00:56:26.567Z,2.18
2019-04-16T00:58:55.246Z,2.11
2019-04-16T01:01:24.313Z,2.00
2019-04-16T01:03:52.966Z,1.85
2019-04-16T01:06:21.623Z,1.77
2019-04-16T01:08:54.924Z,1.67
2019-04-16T01:11:20.736Z,1.70
2019-04-16T01:13:49.702Z,1.65
2019-04-16T01:16:18.451Z,1.68
2019-04-16T01:18:47.074Z,1.72
2019-04-16T01:21:15.807Z,1.67
2019-04-16T01:23:48.351Z,1.70
2019-04-16T01:26:14.851Z,1.72
2019-04-16T01:28:50.119Z,1.80
2019-04-16T01:31:29.318Z,1.75
2019-04-16T01:34:18.154Z,1.61
2019-04-16T01:37:05.633Z,1.32
2019-04-16T01:39:34.957Z,0.83
2019-04-16T01:42:03.708Z,0.50
2019-04-16T01:44:32.415Z,0.24
2019-04-16T01:47:03.944Z,0.36
2019-04-16T01:49:31.788Z,0.32
2019-04-16T01:52:00.471Z,0.54
2019-04-16T01:54:29.131Z,0.88
2019-04-16T01:56:59.886Z,0.99
2019-04-16T01:59:28.595Z,1.07
2019-04-16T02:01:57.253Z,1.01
2019-04-16T02:04:25.929Z,0.92
2019-04-16T02:06:57.113Z,0.93
2019-04-16T02:09:25.102Z,0.87
2019-04-16T02:11:53.822Z,0.93
2019-04-16T02:14:22.631Z,0.82
2019-04-16T02:16:55.709Z,0.86
2019-04-16T02:19:21.770Z,0.87
2019-04-16T02:21:50.545Z,0.95
2019-04-16T02:24:19.461Z,0.76
2019-04-16T02:26:48.200Z,0.88
2019-04-16T02:29:16.862Z,0.66
2019-04-16T02:31:47.916Z,0.71
2019-04-16T02:34:15.941Z,0.90
2019-04-16T02:36:44.629Z,0.91
2019-04-16T02:39:13.360Z,0.87
2019-04-16T02:41:42.033Z,0.74
2019-04-16T02:44:15.977Z,0.72
2019-04-16T02:46:41.103Z,0.59
2019-04-16T02:49:09.771Z,0.57
2019-04-16T02:51:43.460Z,0.64
2019-04-16T02:54:17.907Z,0.69
2019-04-16T02:56:56.646Z,0.77
2019-04-16T02:59:28.581Z,0.69
2019-04-16T03:02:04.919Z,0.68
2019-04-16T03:04:38.508Z,0.61
2019-04-16T03:07:07.553Z,0.52
2019-04-16T03:09:39.812Z,0.59
2019-04-16T03:12:06.713Z,0.51
2019-04-16T03:14:35.426Z,0.51
2019-04-16T03:17:14.770Z,0.60
2019-04-16T03:19:44.625Z,0.48
2019-04-16T03:22:13.296Z,0.51
2019-04-16T03:24:42.075Z,0.54
2019-04-16T03:27:10.774Z,0.40
2019-04-16T03:29:39.495Z,0.28
2019-04-16T03:32:12.796Z,0.06
2019-04-16T03:34:38.565Z,0.06
2019-04-16T03:37:07.449Z,-0.07
2019-04-16T03:39:36.208Z,-0.07
2019-04-16T03:42:05.229Z,-0.03
2019-04-16T03:44:37.187Z,-0.17
2019-04-16T03:47:04.408Z,-0.13
2019-04-16T03:49:33.072Z,-0.26
2019-04-16T03:52:04.864Z,-0.34
2019-04-16T03:54:32.433Z,-0.22
2019-04-16T03:57:02.180Z,-0.20
2019-04-16T03:59:31.584Z,-0.22
2019-04-16T04:02:00.255Z,-0.21
2019-04-16T04:04:30.050Z,-0.22
2019-04-16T04:06:58.820Z,-0.05
2019-04-16T04:09:27.564Z,-0.09
2019-04-16T04:11:56.227Z,-0.08
2019-04-16T04:14:25.022Z,-0.07
2019-04-16T04:16:53.690Z,-0.15
2019-04-16T04:19:22.357Z,-0.03
2019-04-16T04:21:53.759Z,-0.04
2019-04-16T04:24:21.465Z,-0.06
2019-04-16T04:26:50.168Z,-0.04
2019-04-16T04:29:20.757Z,0.03
2019-04-16T04:31:49.244Z,0.04
2019-04-16T04:34:17.935Z,-0.04
2019-04-16T04:36:46.684Z,-0.18
2019-04-16T04:39:16.190Z,-0.09
2019-04-16T04:41:44.968Z,-0.19
2019-04-16T04:44:13.658Z,-0.10
2019-04-16T04:46:43.198Z,0.09
2019-04-16T04:49:12.703Z,0.00
2019-04-16T04:51:43.420Z,0.03
2019-04-16T04:54:11.784Z,0.28
2019-04-16T04:56:40.467Z,0.34
2019-04-16T04:59:09.132Z,0.40
2019-04-16T05:01:37.817Z,0.46
2019-04-16T05:04:21.213Z,0.52
2019-04-16T05:06:50.293Z,0.60
2019-04-16T05:09:18.945Z,0.72
2019-04-16T05:11:49.460Z,0.85
2019-04-16T05:14:18.060Z,0.95
2019-04-16T05:16:46.719Z,1.03
2019-04-16T05:19:15.727Z,1.16
2019-04-16T05:21:44.549Z,1.30
2019-04-16T05:24:13.221Z,1.36
2019-04-16T05:26:41.908Z,1.44
2019-04-16T05:29:16.115Z,1.61
2019-04-16T05:31:42.635Z,1.72
2019-04-16T05:34:11.833Z,1.99
2019-04-16T05:36:40.521Z,2.11
2019-04-16T05:39:09.942Z,2.14
2019-04-16T05:41:38.834Z,2.39
2019-04-16T05:44:07.500Z,2.73
2019-04-16T05:46:38.350Z,2.97
2019-04-16T05:49:06.554Z,3.16
2019-04-16T05:51:35.518Z,3.31
2019-04-16T05:54:16.892Z,3.48
2019-04-16T05:56:55.544Z,3.65
2019-04-16T05:59:23.033Z,3.81
2019-04-16T06:02:09.052Z,3.92
2019-04-16T06:04:37.737Z,3.95
2019-04-16T06:07:07.693Z,4.23
2019-04-16T06:09:36.582Z,4.39
2019-04-16T06:12:05.841Z,4.58
2019-04-16T06:14:49.541Z,4.66
2019-04-16T06:17:35.182Z,4.76
2019-04-16T06:20:21.317Z,4.86
2019-04-16T06:23:14.965Z,4.90
2019-04-16T06:25:57.122Z,5.09
2019-04-16T06:28:45.224Z,5.30
2019-04-16T06:31:24.105Z,5.40
2019-04-16T06:34:03.922Z,5.57
2019-04-16T06:36:49.018Z,5.71
2019-04-16T06:39:32.422Z,6.04
2019-04-16T06:42:14.846Z,6.29
2019-04-16T06:44:57.783Z,6.65
2019-04-16T06:47:54.662Z,6.98
2019-04-16T06:50:39.540Z,7.10
2019-04-16T06:53:19.610Z,7.34
2019-04-16T06:55:59.584Z,7.51
2019-04-16T06:58:51.217Z,7.55
2019-04-16T07:01:42.069Z,7.82
2019-04-16T07:04:17.569Z,8.05
2019-04-16T07:07:07.848Z,8.22
2019-04-16T07:09:41.745Z,8.35
2019-04-16T07:12:13.927Z,8.59
2019-04-16T07:14:45.608Z,8.71
2019-04-16T07:17:13.009Z,8.92
2019-04-16T07:19:42.128Z,9.13
2019-04-16T07:22:11.992Z,9.34
2019-04-16T07:24:40.869Z,9.51
2019-04-16T07:27:09.835Z,9.40
2019-04-16T07:29:46.182Z,9.74
2019-04-16T07:32:31.216Z,9.88
2019-04-16T07:35:37.118Z,9.86
2019-04-16T07:38:15.381Z,10.11
2019-04-16T07:41:02.010Z,10.44
2019-04-16T07:43:48.849Z,10.54
2019-04-16T07:46:54.818Z,10.71
2019-04-16T07:49:31.595Z,10.80
2019-04-16T07:52:12.302Z,10.96
2019-04-16T07:55:02.498Z,11.12
2019-04-16T07:57:31.318Z,11.36
2019-04-16T08:00:00.453Z,11.46
2019-04-16T08:02:29.417Z,11.65
2019-04-16T08:04:58.100Z,11.93
2019-04-16T08:07:26.763Z,12.10
2019-04-16T08:09:55.452Z,12.45
2019-04-16T08:12:30.453Z,12.52
2019-04-16T08:14:54.833Z,12.56
2019-04-16T08:17:23.549Z,12.83
2019-04-16T08:19:55.140Z,12.88
2019-04-16T08:22:23.396Z,13.03
2019-04-16T08:24:59.539Z,13.09
2019-04-16T08:27:27.632Z,13.13
2019-04-16T08:30:01.987Z,13.36
2019-04-16T08:32:26.684Z,13.41
2019-04-16T08:34:55.378Z,13.37
2019-04-16T08:37:24.043Z,13.67
2019-04-16T08:39:52.752Z,13.72
2019-04-16T08:42:24.241Z,13.95
2019-04-16T08:44:51.826Z,14.13
2019-04-16T08:47:20.520Z,14.32
2019-04-16T08:49:53.658Z,14.56
2019-04-16T08:52:19.618Z,14.75
2019-04-16T08:54:50.432Z,14.89
2019-04-16T08:57:18.708Z,14.96
2019-04-16T08:59:47.979Z,14.90
2019-04-16T09:02:16.675Z,15.00
2019-04-16T09:04:45.351Z,15.16
2019-04-16T09:07:31.982Z,15.31
2019-04-16T09:10:10.140Z,15.39
2019-04-16T09:12:31.986Z,15.98
2019-04-16T09:15:00.712Z,16.18
2019-04-16T09:17:39.022Z,16.41
2019-04-16T09:20:13.253Z,16.79
2019-04-16T09:22:49.225Z,16.67
2019-04-16T09:25:29.832Z,17.24
2019-04-16T09:28:09.886Z,17.41
2019-04-16T09:31:01.180Z,17.25
2019-04-16T09:33:34.505Z,17.77
2019-04-16T09:36:08.948Z,18.20
2019-04-16T09:38:45.455Z,18.66
2019-04-16T09:41:22.819Z,18.51
2019-04-16T09:43:57.392Z,18.84
2019-04-16T09:46:49.633Z,18.85
2019-04-16T09:48:57.193Z,19.21
2019-04-16T09:51:26.380Z,19.58
2019-04-16T09:53:55.456Z,20.21
2019-04-16T09:56:30.569Z,20.75
2019-04-16T09:59:04.057Z,21.10
2019-04-16T10:01:38.806Z,21.10
2019-04-16T10:04:08.737Z,20.89
2019-04-16T10:06:37.427Z,21.33
2019-04-16T10:09:07.044Z,21.10
2019-04-16T10:11:36.447Z,20.71
2019-04-16T10:14:05.826Z,20.87
2019-04-16T10:16:34.636Z,21.11
2019-04-16T10:19:07.646Z,21.02
2019-04-16T10:21:33.915Z,21.05
2019-04-16T10:24:33.882Z,21.18
2019-04-16T10:27:04.458Z,21.63
2019-04-16T10:29:33.223Z,21.94
2019-04-16T10:32:02.039Z,22.37
2019-04-16T10:34:30.678Z,22.54
2019-04-16T10:36:59.376Z,22.34
2019-04-16T10:39:47.147Z,21.62
2019-04-16T10:42:36.763Z,21.92
2019-04-16T10:45:21.047Z,22.89
2019-04-16T10:47:56.337Z,23.42
2019-04-16T10:50:45.802Z,23.41
2019-04-16T10:53:22.651Z,23.71
2019-04-16T10:56:12.322Z,23.41
2019-04-16T10:58:57.533Z,24.16
2019-04-16T11:01:37.622Z,23.81
2019-04-16T11:04:14.824Z,24.92
2019-04-16T11:06:46.392Z,25.45
2019-04-16T11:09:15.641Z,25.79
2019-04-16T11:11:45.356Z,25.46
2019-04-16T11:14:14.257Z,25.72
2019-04-16T11:16:45.350Z,25.88
2019-04-16T11:19:14.023Z,26.20
2019-04-16T11:21:42.704Z,25.92
2019-04-16T11:24:11.585Z,26.57
2019-04-16T11:26:40.511Z,25.88
2019-04-16T11:29:09.229Z,25.89
2019-04-16T11:31:38.357Z,24.85
2019-04-16T11:34:07.853Z,25.44
2019-04-16T11:36:37.154Z,26.54
2019-04-16T11:39:09.242Z,26.25
2019-04-16T11:41:38.041Z,26.47
2019-04-16T11:44:14.795Z,26.84
2019-04-16T11:46:37.462Z,26.39
2019-04-16T11:49:06.731Z,25.86
2019-04-16T11:51:35.475Z,26.40
2019-04-16T11:54:04.275Z,27.25
2019-04-16T11:56:32.978Z,26.68
2019-04-16T11:59:01.645Z,27.15
2019-04-16T12:01:45.972Z,27.81
2019-04-16T12:04:33.746Z,27.60
2019-04-16T12:07:09.970Z,27.17
2019-04-16T12:09:56.446Z,27.20
2019-04-16T12:12:29.262Z,27.22
2019-04-16T12:15:06.823Z,28.04
2019-04-16T12:17:54.557Z,27.43
2019-04-16T12:20:42.361Z,27.42
2019-04-16T12:23:36.187Z,27.17
2019-04-16T12:26:19.303Z,26.52
2019-04-16T12:28:54.111Z,26.45
2019-04-16T12:31:40.478Z,27.82
2019-04-16T12:34:14.912Z,28.26
2019-04-16T12:36:55.244Z,27.62
2019-04-16T12:39:41.163Z,26.10
2019-04-16T12:42:30.985Z,27.28
2019-04-16T12:45:17.509Z,28.57
2019-04-16T12:48:11.333Z,28.97
2019-04-16T12:50:54.151Z,29.58
2019-04-16T12:53:41.914Z,27.50
2019-04-16T12:56:48.014Z,27.76
2019-04-16T12:59:38.574Z,27.64
2019-04-16T13:02:38.510Z,27.47
2019-04-16T13:05:12.936Z,28.01
2019-04-16T13:08:09.875Z,28.71
2019-04-16T13:10:57.585Z,28.53
2019-04-16T13:13:42.708Z,28.35
2019-04-16T13:16:28.975Z,28.27
2019-04-16T13:19:15.314Z,29.33
2019-04-16T13:21:59.808Z,29.92
2019-04-16T13:24:33.031Z,30.81
2019-04-16T13:27:06.221Z,31.05
2019-04-16T13:29:34.943Z,30.34
2019-04-16T13:32:03.853Z,30.70
2019-04-16T13:34:32.670Z,30.28
2019-04-16T13:37:01.353Z,29.38
2019-04-16T13:39:52.896Z,29.64
2019-04-16T13:42:21.563Z,30.07
2019-04-16T13:45:16.932Z,30.66
2019-04-16T13:47:45.662Z,30.53
2019-04-16T13:50:40.853Z,29.87
2019-04-16T13:53:29.924Z,30.40
2019-04-16T13:56:26.545Z,31.12
2019-04-16T13:59:13.600Z,30.09
2019-04-16T14:01:59.144Z,29.50
2019-04-16T14:04:31.740Z,28.85
2019-04-16T14:06:58.356Z,28.72
2019-04-16T14:09:27.127Z,29.46
2019-04-16T14:11:56.275Z,30.55
2019-04-16T14:14:26.058Z,30.99
2019-04-16T14:16:54.731Z,31.57
2019-04-16T14:19:23.473Z,30.80
2019-04-16T14:21:52.176Z,29.32
2019-04-16T14:24:20.837Z,30.08
2019-04-16T14:26:49.545Z,29.78
2019-04-16T14:29:18.235Z,28.85
2019-04-16T14:31:48.932Z,28.42
2019-04-16T14:34:38.319Z,29.16
2019-04-16T14:37:07.037Z,28.98
2019-04-16T14:39:38.574Z,30.03
2019-04-16T14:42:07.374Z,29.66
2019-04-16T14:44:43.306Z,30.35
2019-04-16T14:47:12.176Z,30.10
2019-04-16T14:49:40.849Z,28.74
2019-04-16T14:52:09.585Z,29.39
2019-04-16T14:54:57.856Z,29.21
2019-04-16T14:57:26.596Z,28.78
2019-04-16T15:00:00.578Z,27.90
2019-04-16T15:02:46.255Z,28.24
2019-04-16T15:05:34.068Z,27.83
2019-04-16T15:08:29.534Z,29.07
2019-04-16T15:11:14.670Z,29.81
2019-04-16T15:13:48.805Z,28.70
2019-04-16T15:16:33.632Z,28.36
2019-04-16T15:19:20.542Z,27.44
2019-04-16T15:22:08.316Z,27.88
2019-04-16T15:24:56.144Z,27.28
2019-04-16T15:27:56.007Z,27.55
2019-04-16T15:30:42.396Z,28.54
2019-04-16T15:33:21.378Z,27.62
2019-04-16T15:35:54.799Z,28.06
2019-04-16T15:38:40.055Z,28.88
2019-04-16T15:41:46.092Z,28.24
2019-04-16T15:44:24.557Z,27.97
2019-04-16T15:47:00.524Z,28.38
2019-04-16T15:49:55.701Z,29.00
2019-04-16T15:52:28.703Z,28.28
2019-04-16T15:55:16.348Z,27.26
2019-04-16T15:57:51.254Z,26.23
2019-04-16T16:00:43.207Z,26.23
2019-04-16T16:03:29.888Z,26.75
2019-04-16T16:06:08.024Z,27.16
2019-04-16T16:08:42.246Z,28.04
2019-04-16T16:11:19.204Z,28.92
2019-04-16T16:13:47.963Z,27.18
2019-04-16T16:16:18.088Z,26.65
2019-04-16T16:18:47.049Z,26.60
2019-04-16T16:21:15.790Z,26.98
2019-04-16T16:23:44.459Z,26.30
2019-04-16T16:26:13.199Z,26.90
2019-04-16T16:28:41.972Z,26.17
2019-04-16T16:31:10.655Z,26.35
2019-04-16T16:33:39.693Z,26.23
2019-04-16T16:36:08.372Z,25.60
2019-04-16T16:38:37.041Z,25.86
2019-04-16T16:41:05.789Z,26.62
2019-04-16T16:43:34.494Z,25.00
2019-04-16T16:46:08.512Z,25.05
2019-04-16T16:48:37.209Z,24.63
2019-04-16T16:51:05.903Z,24.90
2019-04-16T16:53:48.723Z,25.42
2019-04-16T16:56:25.916Z,25.19
2019-04-16T16:59:03.985Z,24.81
2019-04-16T17:02:08.569Z,24.07
2019-04-16T17:04:38.427Z,24.06
2019-04-16T17:07:07.412Z,23.22
2019-04-16T17:09:36.466Z,23.19
2019-04-16T17:12:05.338Z,23.23
2019-04-16T17:14:37.763Z,22.75
2019-04-16T17:17:13.451Z,22.65
2019-04-16T17:19:35.407Z,22.47
2019-04-16T17:22:04.187Z,22.43
2019-04-16T17:24:32.859Z,21.83
2019-04-16T17:27:01.617Z,21.39
2019-04-16T17:29:30.412Z,21.17
2019-04-16T17:31:59.100Z,20.61
2019-04-16T17:34:27.786Z,20.05
2019-04-16T17:36:56.585Z,19.30
2019-04-16T17:39:43.380Z,18.84
2019-04-16T17:42:12.324Z,18.54
2019-04-16T17:45:06.243Z,18.32
2019-04-16T17:47:56.424Z,18.04
2019-04-16T17:50:39.618Z,17.51
2019-04-16T17:53:20.491Z,16.73
2019-04-16T17:56:08.207Z,15.98
2019-04-16T17:58:58.330Z,15.44
2019-04-16T18:01:44.487Z,15.01
2019-04-16T18:04:26.687Z,14.71
2019-04-16T18:07:13.395Z,14.45
2019-04-16T18:09:45.690Z,14.16
2019-04-16T18:12:36.440Z,13.83
2019-04-16T18:15:16.901Z,13.68
2019-04-16T18:18:05.519Z,13.53
2019-04-16T18:20:57.277Z,13.28
2019-04-16T18:23:27.796Z,13.28
2019-04-16T18:26:21.582Z,13.13
2019-04-16T18:29:01.471Z,12.99
2019-04-16T18:31:55.845Z,12.63
2019-04-16T18:34:43.485Z,12.70
2019-04-16T18:37:30.100Z,12.33
2019-04-16T18:40:20.626Z,12.33
2019-04-16T18:43:07.190Z,12.40
2019-04-16T18:46:04.319Z,12.03
2019-04-16T18:48:35.024Z,11.93
2019-04-16T18:51:03.871Z,11.66
2019-04-16T18:53:32.540Z,11.43
2019-04-16T18:56:01.237Z,11.10
2019-04-16T18:58:30.003Z,10.99
2019-04-16T19:01:01.975Z,11.01
2019-04-16T19:03:31.000Z,10.79
2019-04-16T19:05:59.952Z,10.42
2019-04-16T19:08:40.536Z,10.17
2019-04-16T19:10:59.753Z,9.95
2019-04-16T19:13:28.411Z,9.91
2019-04-16T19:15:57.092Z,9.79
2019-04-16T19:18:25.810Z,9.64
2019-04-16T19:20:54.560Z,9.54
2019-04-16T19:23:23.222Z,9.61
2019-04-16T19:25:55.342Z,9.60
2019-04-16T19:28:24.286Z,9.50
2019-04-16T19:30:53.002Z,9.80
2019-04-16T19:33:21.704Z,10.13
2019-04-16T19:35:51.926Z,10.48
2019-04-16T19:38:20.896Z,10.48
2019-04-16T19:40:50.890Z,10.38
2019-04-16T19:43:19.989Z,10.24
2019-04-16T19:45:48.695Z,10.54
2019-04-16T19:48:19.516Z,10.48
2019-04-16T19:50:47.783Z,10.53
2019-04-16T19:53:16.540Z,10.57
2019-04-16T19:55:45.973Z,10.42
2019-04-16T19:58:15.251Z,10.14
2019-04-16T20:00:44.010Z,9.74
2019-04-16T20:03:12.676Z,9.31
2019-04-16T20:05:41.384Z,9.12
2019-04-16T20:08:10.338Z,8.96
2019-04-16T20:10:39.017Z,8.93
2019-04-16T20:13:07.995Z,8.84
2019-04-16T20:15:36.660Z,8.74
2019-04-16T20:18:07.261Z,8.60
2019-04-16T20:20:36.088Z,8.60
2019-04-16T20:23:05.059Z,8.44
2019-04-16T20:25:33.688Z,8.38
2019-04-16T20:28:02.425Z,8.54
2019-04-16T20:30:31.029Z,8.34
2019-04-16T20:32:59.739Z,8.26
2019-04-16T20:35:28.420Z,8.27
2019-04-16T20:37:57.114Z,8.15
2019-04-16T20:40:25.777Z,7.99
2019-04-16T20:42:54.805Z,7.85
2019-04-16T20:45:23.511Z,7.65
2019-04-16T20:47:52.203Z,7.61
2019-04-16T20:50:21.533Z,7.51
2019-04-16T20:52:50.314Z,7.32
2019-04-16T20:57:46.924Z,7.15
2019-04-16T21:00:21.374Z,7.04
2019-04-16T21:02:51.105Z,7.12
2019-04-16T21:05:22.272Z,7.00
2019-04-16T21:07:50.893Z,6.98
2019-04-16T21:10:19.580Z,6.97
2019-04-16T21:12:48.247Z,6.93
2019-04-16T21:15:16.905Z,6.89
2019-04-16T21:17:45.631Z,6.76
2019-04-16T21:20:19.305Z,6.74
2019-04-16T21:22:44.677Z,6.56
2019-04-16T21:25:13.995Z,6.56
2019-04-16T21:28:00.774Z,6.55
2019-04-16T21:30:29.451Z,6.43
2019-04-16T21:33:12.782Z,6.54
2019-04-16T21:35:44.142Z,6.80
2019-04-16T21:38:34.762Z,6.78
2019-04-16T21:41:03.422Z,6.85
2019-04-16T21:43:32.185Z,6.70
2019-04-16T21:46:00.874Z,6.49
2019-04-16T21:48:29.563Z,6.69
2019-04-16T21:50:58.225Z,6.79
2019-04-16T21:53:27.885Z,6.79
2019-04-16T21:55:57.459Z,6.81
2019-04-16T21:58:26.141Z,6.64
2019-04-16T22:01:04.474Z,6.61
2019-04-16T22:03:32.258Z,6.42
2019-04-16T22:06:01.003Z,6.40
2019-04-16T22:08:30.375Z,6.50
2019-04-16T22:10:59.097Z,6.34
2019-04-16T22:13:27.789Z,6.39
2019-04-16T22:15:58.060Z,6.36
2019-04-16T22:18:26.859Z,6.37
2019-04-16T22:20:55.984Z,6.23
2019-04-16T22:23:24.807Z,6.26
2019-04-16T22:25:53.455Z,6.38
2019-04-16T22:28:22.148Z,6.42
2019-04-16T22:30:51.490Z,6.42
2019-04-16T22:33:20.947Z,6.44
2019-04-16T22:35:49.644Z,6.32
2019-04-16T22:38:18.306Z,6.34
2019-04-16T22:41:06.305Z,6.38
2019-04-16T22:44:03.446Z,6.22
2019-04-16T22:46:37.519Z,6.58
2019-04-16T22:49:06.172Z,6.61
2019-04-16T22:51:34.912Z,6.44
2019-04-16T22:54:03.673Z,6.38
2019-04-16T22:56:46.032Z,6.44
2019-04-16T22:59:14.741Z,6.35
2019-04-16T23:01:44.903Z,6.43
2019-04-16T23:04:14.260Z,6.47
2019-04-16T23:06:43.035Z,6.46
2019-04-16T23:09:16.776Z,6.29
2019-04-16T23:11:42.078Z,6.20
2019-04-16T23:14:10.770Z,6.16
2019-04-16T23:16:42.734Z,6.02
2019-04-16T23:19:09.863Z,5.99
2019-04-16T23:21:42.301Z,6.09
2019-04-16T23:24:09.046Z,6.25
2019-04-16T23:26:37.814Z,6.16
2019-04-16T23:29:06.802Z,6.08
2019-04-16T23:31:35.836Z,6.13
2019-04-16T23:34:06.415Z,6.15
2019-04-16T23:36:34.988Z,6.04
2019-04-16T23:39:05.507Z,6.14
2019-04-16T23:41:34.476Z,6.15
2019-04-16T23:44:27.323Z,6.08
2019-04-16T23:47:17.974Z,6.09
2019-04-16T23:49:52.318Z,5.83
2019-04-16T23:52:28.732Z,5.87
2019-04-16T23:55:10.243Z,5.75
2019-04-16T23:57:56.700Z,5.61
